Weather History for Jamestown, NY

Change the Weather History Date:

Saturday, August 3, 2013

  Actual Average Record
Temperature  
Mean Temperature 63 °F -  
Max Temperature 69 °F 81 °F 99 °F (1988)
Min Temperature 57 °F 55 °F 44 °F (1976)
Degree Days  
Heating Degree Days 2    
Growing Degree Days 13 (Base 50)    
Moisture  
Dew Point 55 °F    
Average Humidity 72    
Maximum Humidity 94    
Minimum Humidity 46    
Precipitation  
Precipitation 0.03 in - - ()
Sea Level Pressure  
Sea Level Pressure 29.97 in    
Wind  
Wind Speed 8 mph (WNW)    
Max Wind Speed 16 mph    
Max Gust Speed 21 mph    
Visibility 10 miles    
Events      
Averages and records for this station are not official NWS values.
T = Trace of Precipitation, MM = Missing Value Source: NWS Daily Summary

Daily Weather History Graph

Daily Weather History Graph

Search for Another Location

Airport:

Trip Planner

Search our weather history database for the weather conditions in past years. The results will help you decide how hot, cold, wet, or windy it might be!

Date:

Astronomy

Aug. 03, 2013 Rise Set
Actual Time 6:12 AM EDT 8:33 PM EDT
Civil Twilight 5:40 AM EDT 9:04 PM EDT
Nautical Twilight 5:02 AM EDT 9:43 PM EDT
Astronomical Twilight 4:18 AM EDT 10:26 PM EDT
Moon 3:19 AM EDT (8/3) 6:15 PM EDT (8/3)
Length of Visible Light 15h 23m
Length of Day
14h 20m
Waning Crescent, 9% of the Moon is Illuminated
Aug 3
Waning Crescent
Aug 6
New
Aug 14
First Quarter
Aug 20
Full
Aug 28
Last Quarter

Hourly Weather History & Observations

Time (EDT) Temp. Dew Point Humidity Pressure Visibility Wind Dir Wind Speed Gust Speed Precip Events Conditions
12:15 AM 62.6 °F 57.2 °F 82% 29.91 in 10.0 mi SSW 9.2 mph - N/A   Overcast
12:35 AM 62.6 °F 57.2 °F 82% 29.91 in 10.0 mi SW 8.1 mph - N/A   Mostly Cloudy
12:55 AM 62.6 °F 57.2 °F 82% 29.92 in 10.0 mi SW 6.9 mph - N/A   Mostly Cloudy
1:15 AM 62.6 °F 57.2 °F 82% 29.91 in 10.0 mi SW 9.2 mph - 0.02 in   Overcast
1:35 AM 62.6 °F 59.0 °F 88% 29.91 in 10.0 mi SW 4.6 mph - 0.02 in   Overcast
1:55 AM 62.6 °F 59.0 °F 88% 29.91 in 10.0 mi SW 4.6 mph - 0.03 in   Overcast
2:15 AM 62.6 °F 59.0 °F 88% 29.91 in 10.0 mi WSW 4.6 mph - N/A   Overcast
2:35 AM 62.6 °F 59.0 °F 88% 29.92 in 10.0 mi WSW 6.9 mph - N/A   Overcast
2:55 AM 62.6 °F 60.8 °F 94% 29.92 in 9.0 mi SW 4.6 mph - N/A   Overcast
3:15 AM 62.6 °F 60.8 °F 94% 29.92 in 7.0 mi SW 6.9 mph - N/A   Overcast
3:35 AM 62.6 °F 60.8 °F 94% 29.91 in 5.0 mi SW 6.9 mph - N/A   Mostly Cloudy
3:55 AM 62.6 °F 60.8 °F 94% 29.92 in 5.0 mi WSW 5.8 mph - N/A   Overcast
4:15 AM 62.6 °F 60.8 °F 94% 29.92 in 7.0 mi WSW 8.1 mph - N/A   Overcast
4:35 AM 62.6 °F 60.8 °F 94% 29.93 in 8.0 mi NW 9.2 mph - N/A   Overcast
4:55 AM 60.8 °F 57.2 °F 88% 29.93 in 10.0 mi WNW 5.8 mph - N/A   Partly Cloudy
5:15 AM 60.8 °F 57.2 °F 88% 29.94 in 10.0 mi NW 3.5 mph - N/A   Partly Cloudy
5:35 AM 60.8 °F 57.2 °F 88% 29.94 in 10.0 mi NNW 5.8 mph - N/A   Partly Cloudy
5:55 AM 59.0 °F 55.4 °F 88% 29.94 in 10.0 mi WSW 3.5 mph - N/A   Clear
6:15 AM 57.2 °F 55.4 °F 94% 29.95 in 9.0 mi WSW 3.5 mph - N/A   Clear
6:35 AM 59.0 °F 55.4 °F 88% 29.96 in 10.0 mi WNW 4.6 mph - N/A   Scattered Clouds
6:55 AM 59.0 °F 55.4 °F 88% 29.96 in 10.0 mi Calm Calm - N/A   Scattered Clouds
7:15 AM 59.0 °F 57.2 °F 94% 29.96 in 10.0 mi Calm Calm - N/A   Scattered Clouds
7:35 AM 59.0 °F 57.2 °F 94% 29.96 in 10.0 mi North 3.5 mph - N/A   Overcast
7:55 AM 60.8 °F 57.2 °F 88% 29.97 in 10.0 mi NNW 4.6 mph - N/A   Overcast
8:15 AM 60.8 °F 57.2 °F 88% 29.97 in 10.0 mi NW 5.8 mph - N/A   Overcast
8:35 AM 60.8 °F 57.2 °F 88% 29.97 in 10.0 mi North 4.6 mph - N/A   Mostly Cloudy
8:55 AM 62.6 °F 57.2 °F 82% 29.97 in 10.0 mi Calm Calm - N/A   Scattered Clouds
9:15 AM 62.6 °F 55.4 °F 77% 29.97 in 10.0 mi Calm Calm - N/A   Mostly Cloudy
9:35 AM 64.4 °F 57.2 °F 77% 29.97 in 10.0 mi NNW 3.5 mph - N/A   Overcast
9:55 AM 64.4 °F 55.4 °F 73% 29.97 in 10.0 mi West 5.8 mph - N/A   Scattered Clouds
10:15 AM 64.4 °F 55.4 °F 73% 29.98 in 10.0 mi NNW 6.9 mph - N/A   Scattered Clouds
10:35 AM 66.2 °F 53.6 °F 64% 29.98 in 10.0 mi NW 6.9 mph - N/A   Scattered Clouds
10:55 AM 66.2 °F 55.4 °F 68% 29.98 in 10.0 mi NNW 8.1 mph - N/A   Mostly Cloudy
11:15 AM 68.0 °F 55.4 °F 64% 29.98 in 10.0 mi NW 11.5 mph - N/A   Mostly Cloudy
11:35 AM 68.0 °F 53.6 °F 60% 29.98 in 10.0 mi WNW 11.5 mph - N/A   Scattered Clouds
11:55 AM 68.0 °F 53.6 °F 60% 29.98 in 10.0 mi West 11.5 mph 17.3 mph N/A   Scattered Clouds
12:15 PM 69.8 °F 53.6 °F 56% 29.99 in 10.0 mi West 12.7 mph 17.3 mph N/A   Scattered Clouds
12:35 PM 69.8 °F 53.6 °F 56% 29.99 in 10.0 mi West 12.7 mph 16.1 mph N/A   Partly Cloudy
12:55 PM 69.8 °F 51.8 °F 53% 29.99 in 10.0 mi WSW 12.7 mph - N/A   Clear
1:15 PM 69.8 °F 51.8 °F 53% 29.99 in 10.0 mi WNW 13.8 mph 17.3 mph N/A   Partly Cloudy
1:35 PM 69.8 °F 50.0 °F 49% 29.99 in 10.0 mi WNW 15.0 mph - N/A   Partly Cloudy
1:55 PM 69.8 °F 51.8 °F 53% 29.99 in 10.0 mi WNW 11.5 mph 18.4 mph N/A   Partly Cloudy
2:15 PM 69.8 °F 51.8 °F 53% 29.99 in 10.0 mi West 11.5 mph 16.1 mph N/A   Partly Cloudy
2:35 PM 69.8 °F 48.2 °F 46% 29.99 in 10.0 mi WNW 10.4 mph 19.6 mph N/A   Clear
2:55 PM 69.8 °F 48.2 °F 46% 29.99 in 10.0 mi West 13.8 mph 19.6 mph N/A   Clear
3:15 PM 69.8 °F 48.2 °F 46% 29.99 in 10.0 mi NW 16.1 mph 20.7 mph N/A   Clear
3:35 PM 69.8 °F 48.2 °F 46% 29.99 in 10.0 mi WNW 10.4 mph - N/A   Clear
3:55 PM 69.8 °F 50.0 °F 49% 29.99 in 10.0 mi West 11.5 mph 18.4 mph N/A   Partly Cloudy
4:15 PM 69.8 °F 51.8 °F 53% 29.99 in 10.0 mi WNW 13.8 mph 18.4 mph N/A   Clear
4:35 PM 69.8 °F 51.8 °F 53% 29.99 in 10.0 mi WNW 11.5 mph 16.1 mph N/A   Clear
4:55 PM 69.8 °F 51.8 °F 53% 29.99 in 10.0 mi West 12.7 mph 19.6 mph N/A   Partly Cloudy
5:15 PM 69.8 °F 51.8 °F 53% 29.99 in 10.0 mi West 9.2 mph 16.1 mph N/A   Scattered Clouds
5:35 PM 69.8 °F 51.8 °F 53% 29.99 in 10.0 mi West 11.5 mph - N/A   Partly Cloudy
5:55 PM 69.8 °F 51.8 °F 53% 29.99 in 10.0 mi West 11.5 mph 18.4 mph N/A   Partly Cloudy
6:15 PM 68.0 °F 51.8 °F 56% 30.00 in 10.0 mi WNW 12.7 mph 19.6 mph N/A   Clear
6:35 PM 66.2 °F 51.8 °F 60% 30.00 in 10.0 mi West 11.5 mph - N/A   Partly Cloudy
6:55 PM 66.2 °F 53.6 °F 64% 29.99 in 10.0 mi NW 13.8 mph - N/A   Partly Cloudy
7:15 PM 66.2 °F 53.6 °F 64% 30.00 in 10.0 mi West 10.4 mph - N/A   Partly Cloudy
7:35 PM 64.4 °F 53.6 °F 68% 30.00 in 10.0 mi West 6.9 mph - N/A   Clear
7:55 PM 64.4 °F 53.6 °F 68% 30.00 in 10.0 mi WNW 8.1 mph - N/A   Clear
8:15 PM 64.4 °F 53.6 °F 68% 30.00 in 10.0 mi West 5.8 mph - N/A   Clear
8:35 PM 62.6 °F 53.6 °F 72% 30.00 in 10.0 mi West 6.9 mph - N/A   Clear
8:55 PM 62.6 °F 53.6 °F 72% 30.00 in 10.0 mi West 6.9 mph - N/A   Clear
9:15 PM 62.6 °F 53.6 °F 72% 30.01 in 10.0 mi West 6.9 mph - N/A   Clear
9:35 PM 60.8 °F 53.6 °F 77% 30.01 in 10.0 mi West 8.1 mph - N/A   Clear
9:55 PM 60.8 °F 53.6 °F 77% 30.01 in 10.0 mi WNW 8.1 mph - N/A   Clear
10:15 PM 60.8 °F 53.6 °F 77% 30.01 in 10.0 mi WNW 8.1 mph - N/A   Clear
10:35 PM 60.8 °F 51.8 °F 72% 30.01 in 10.0 mi WNW 8.1 mph - N/A   Clear
10:55 PM 60.8 °F 51.8 °F 72% 30.01 in 10.0 mi WNW 6.9 mph - N/A   Clear
11:15 PM 60.8 °F 51.8 °F 72% 30.01 in 10.0 mi NW 5.8 mph - N/A   Clear
11:35 PM 60.8 °F 51.8 °F 72% 30.01 in 10.0 mi NW 5.8 mph - N/A   Clear
11:55 PM 60.8 °F 51.8 °F 72% 30.01 in 10.0 mi NW 4.6 mph - N/A   Clear